Aviation Digital Data Service (ADDS)

Output produced by METARs form (1437 UTC 20 April 2014)
found at http://aviationweather.gov/adds/metars/
 
KEWR 201430Z 2015/2118 10011KT P6SM BKN250 
     FM201800 14010KT P6SM SCT250 
     FM210200 09006KT P6SM SKC 
     FM210400 VRB04KT P6SM SKC